sensor_id;sensor_type;location;lat;lon;timestamp;temperature;humidity
28767;DHT22;15921;52.034;20.650;2022-07-29T00:02:00;12.30;99.90
28767;DHT22;15921;52.034;20.650;2022-07-29T00:04:26;12.30;99.90
28767;DHT22;15921;52.034;20.650;2022-07-29T00:06:51;12.20;99.90
28767;DHT22;15921;52.034;20.650;2022-07-29T00:09:17;12.20;99.90
28767;DHT22;15921;52.034;20.650;2022-07-29T00:11:42;12.20;99.90
28767;DHT22;15921;52.034;20.650;2022-07-29T00:14:08;12.20;99.90
28767;DHT22;15921;52.034;20.650;2022-07-29T00:16:34;12.10;99.90
28767;DHT22;15921;52.034;20.650;2022-07-29T00:19:00;12.20;99.90
28767;DHT22;15921;52.034;20.650;2022-07-29T00:21:26;12.10;99.90
28767;DHT22;15921;52.034;20.650;2022-07-29T00:23:51;12.10;99.90
28767;DHT22;15921;52.034;20.650;2022-07-29T00:26:17;12.10;99.90
28767;DHT22;15921;52.034;20.650;2022-07-29T00:28:42;12.10;99.90
28767;DHT22;15921;52.034;20.650;2022-07-29T00:31:08;12.00;99.90
28767;DHT22;15921;52.034;20.650;2022-07-29T00:33:34;12.00;99.90
28767;DHT22;15921;52.034;20.650;2022-07-29T00:35:59;12.00;99.90
28767;DHT22;15921;52.034;20.650;2022-07-29T00:38:25;12.00;99.90
28767;DHT22;15921;52.034;20.650;2022-07-29T00:40:51;12.00;99.90
28767;DHT22;15921;52.034;20.650;2022-07-29T00:43:16;11.90;99.90
28767;DHT22;15921;52.034;20.650;2022-07-29T00:45:42;11.90;99.90
28767;DHT22;15921;52.034;20.650;2022-07-29T00:48:08;12.00;99.90
28767;DHT22;15921;52.034;20.650;2022-07-29T00:50:34;11.90;99.90
28767;DHT22;15921;52.034;20.650;2022-07-29T00:53:00;11.90;99.90
28767;DHT22;15921;52.034;20.650;2022-07-29T00:55:26;11.80;99.90
28767;DHT22;15921;52.034;20.650;2022-07-29T00:57:52;11.80;99.90
28767;DHT22;15921;52.034;20.650;2022-07-29T01:00:19;11.70;99.90
28767;DHT22;15921;52.034;20.650;2022-07-29T01:02:45;11.70;99.90
28767;DHT22;15921;52.034;20.650;2022-07-29T01:05:13;11.70;99.90
28767;DHT22;15921;52.034;20.650;2022-07-29T01:07:39;11.60;99.90
28767;DHT22;15921;52.034;20.650;2022-07-29T01:10:06;11.60;99.90
28767;DHT22;15921;52.034;20.650;2022-07-29T01:12:33;11.60;99.90
28767;DHT22;15921;52.034;20.650;2022-07-29T01:15:00;11.50;99.90
28767;DHT22;15921;52.034;20.650;2022-07-29T01:17:26;11.40;99.90
28767;DHT22;15921;52.034;20.650;2022-07-29T01:30:03;11.20;99.90
28767;DHT22;15921;52.034;20.650;2022-07-29T01:32:31;11.20;99.90
28767;DHT22;15921;52.034;20.650;2022-07-29T01:37:24;11.20;99.90
28767;DHT22;15921;52.034;20.650;2022-07-29T01:39:52;11.10;99.90
28767;DHT22;15921;52.034;20.650;2022-07-29T01:42:34;11.20;99.90
28767;DHT22;15921;52.034;20.650;2022-07-29T01:47:42;11.00;99.90
28767;DHT22;15921;52.034;20.650;2022-07-29T01:50:10;11.00;99.90
28767;DHT22;15921;52.034;20.650;2022-07-29T01:52:41;10.90;99.90
28767;DHT22;15921;52.034;20.650;2022-07-29T01:55:09;10.90;99.90
28767;DHT22;15921;52.034;20.650;2022-07-29T01:57:37;10.90;99.90
28767;DHT22;15921;52.034;20.650;2022-07-29T02:00:04;10.90;99.90
28767;DHT22;15921;52.034;20.650;2022-07-29T02:02:30;10.90;99.90
28767;DHT22;15921;52.034;20.650;2022-07-29T02:04:57;10.90;99.90
28767;DHT22;15921;52.034;20.650;2022-07-29T02:07:24;10.80;99.90
28767;DHT22;15921;52.034;20.650;2022-07-29T02:09:50;10.90;99.90
28767;DHT22;15921;52.034;20.650;2022-07-29T02:12:17;10.90;99.90
28767;DHT22;15921;52.034;20.650;2022-07-29T02:14:44;10.80;99.90
28767;DHT22;15921;52.034;20.650;2022-07-29T02:17:11;10.80;99.90
28767;DHT22;15921;52.034;20.650;2022-07-29T02:19:37;10.90;99.90
28767;DHT22;15921;52.034;20.650;2022-07-29T02:22:04;10.90;99.90
28767;DHT22;15921;52.034;20.650;2022-07-29T02:24:31;10.90;99.90
28767;DHT22;15921;52.034;20.650;2022-07-29T02:26:58;10.90;99.90
28767;DHT22;15921;52.034;20.650;2022-07-29T02:29:26;10.80;99.90
28767;DHT22;15921;52.034;20.650;2022-07-29T02:31:51;10.90;99.90
28767;DHT22;15921;52.034;20.650;2022-07-29T02:34:18;10.90;99.90
28767;DHT22;15921;52.034;20.650;2022-07-29T02:36:43;10.90;99.90
28767;DHT22;15921;52.034;20.650;2022-07-29T02:39:10;10.80;99.90
28767;DHT22;15921;52.034;20.650;2022-07-29T02:41:50;10.80;99.90
28767;DHT22;15921;52.034;20.650;2022-07-29T02:44:17;10.80;99.90
28767;DHT22;15921;52.034;20.650;2022-07-29T02:47:02;10.80;99.90
28767;DHT22;15921;52.034;20.650;2022-07-29T02:52:01;10.80;99.90
28767;DHT22;15921;52.034;20.650;2022-07-29T02:57:05;10.80;99.90
28767;DHT22;15921;52.034;20.650;2022-07-29T02:59:32;10.80;99.90
28767;DHT22;15921;52.034;20.650;2022-07-29T03:01:59;10.90;99.90
28767;DHT22;15921;52.034;20.650;2022-07-29T03:04:26;10.90;99.90
28767;DHT22;15921;52.034;20.650;2022-07-29T03:06:53;10.90;99.90
28767;DHT22;15921;52.034;20.650;2022-07-29T03:09:19;10.90;99.90
28767;DHT22;15921;52.034;20.650;2022-07-29T03:11:46;10.90;99.90
28767;DHT22;15921;52.034;20.650;2022-07-29T03:14:12;10.90;99.90
28767;DHT22;15921;52.034;20.650;2022-07-29T03:16:38;11.00;99.90
28767;DHT22;15921;52.034;20.650;2022-07-29T03:19:03;11.10;99.90
28767;DHT22;15921;52.034;20.650;2022-07-29T03:21:30;11.10;99.90
28767;DHT22;15921;52.034;20.650;2022-07-29T03:23:55;11.20;99.90
28767;DHT22;15921;52.034;20.650;2022-07-29T03:26:21;11.20;99.90
28767;DHT22;15921;52.034;20.650;2022-07-29T03:28:47;11.30;99.90
28767;DHT22;15921;52.034;20.650;2022-07-29T03:31:12;11.30;99.90
28767;DHT22;15921;52.034;20.650;2022-07-29T03:33:38;11.40;99.90
28767;DHT22;15921;52.034;20.650;2022-07-29T03:36:03;11.40;99.90
28767;DHT22;15921;52.034;20.650;2022-07-29T03:38:29;11.50;99.90
28767;DHT22;15921;52.034;20.650;2022-07-29T03:40:57;11.60;99.90
28767;DHT22;15921;52.034;20.650;2022-07-29T03:43:23;11.70;99.90
28767;DHT22;15921;52.034;20.650;2022-07-29T03:45:53;11.70;99.90
28767;DHT22;15921;52.034;20.650;2022-07-29T03:48:20;11.80;99.90
28767;DHT22;15921;52.034;20.650;2022-07-29T03:50:46;11.90;99.90
28767;DHT22;15921;52.034;20.650;2022-07-29T03:53:12;12.00;99.90
28767;DHT22;15921;52.034;20.650;2022-07-29T03:55:41;12.20;99.90
28767;DHT22;15921;52.034;20.650;2022-07-29T03:58:07;12.30;99.90
28767;DHT22;15921;52.034;20.650;2022-07-29T04:00:34;12.40;99.90
28767;DHT22;15921;52.034;20.650;2022-07-29T04:02:59;12.40;99.90
28767;DHT22;15921;52.034;20.650;2022-07-29T04:05:25;12.50;99.90
28767;DHT22;15921;52.034;20.650;2022-07-29T04:07:51;12.60;99.90
28767;DHT22;15921;52.034;20.650;2022-07-29T04:10:18;12.70;99.90
28767;DHT22;15921;52.034;20.650;2022-07-29T04:12:48;13.00;99.90
28767;DHT22;15921;52.034;20.650;2022-07-29T04:15:14;12.90;99.90
28767;DHT22;15921;52.034;20.650;2022-07-29T04:17:40;12.90;99.90
28767;DHT22;15921;52.034;20.650;2022-07-29T04:20:05;13.00;99.90
28767;DHT22;15921;52.034;20.650;2022-07-29T04:22:31;13.10;99.90
28767;DHT22;15921;52.034;20.650;2022-07-29T04:24:57;13.30;99.90
28767;DHT22;15921;52.034;20.650;2022-07-29T04:27:22;13.40;99.90
28767;DHT22;15921;52.034;20.650;2022-07-29T04:29:48;13.50;99.90
28767;DHT22;15921;52.034;20.650;2022-07-29T04:32:14;13.60;99.90
28767;DHT22;15921;52.034;20.650;2022-07-29T04:34:40;13.80;99.90
28767;DHT22;15921;52.034;20.650;2022-07-29T04:37:05;13.90;99.90
28767;DHT22;15921;52.034;20.650;2022-07-29T04:39:31;14.00;99.90
28767;DHT22;15921;52.034;20.650;2022-07-29T04:41:57;14.10;99.90
28767;DHT22;15921;52.034;20.650;2022-07-29T04:44:22;14.20;99.90
28767;DHT22;15921;52.034;20.650;2022-07-29T04:46:48;14.30;99.90
28767;DHT22;15921;52.034;20.650;2022-07-29T04:49:13;14.40;99.90
28767;DHT22;15921;52.034;20.650;2022-07-29T04:51:39;14.50;99.90
28767;DHT22;15921;52.034;20.650;2022-07-29T04:54:05;14.60;99.90
28767;DHT22;15921;52.034;20.650;2022-07-29T04:56:31;14.70;99.90
28767;DHT22;15921;52.034;20.650;2022-07-29T04:58:57;14.90;99.90
28767;DHT22;15921;52.034;20.650;2022-07-29T05:01:22;15.00;99.90
28767;DHT22;15921;52.034;20.650;2022-07-29T05:03:48;15.10;99.90
28767;DHT22;15921;52.034;20.650;2022-07-29T05:06:13;15.30;99.90
28767;DHT22;15921;52.034;20.650;2022-07-29T05:08:39;15.40;99.90
28767;DHT22;15921;52.034;20.650;2022-07-29T05:11:05;15.50;99.90
28767;DHT22;15921;52.034;20.650;2022-07-29T05:13:30;15.60;99.90
28767;DHT22;15921;52.034;20.650;2022-07-29T05:15:56;15.70;99.90
28767;DHT22;15921;52.034;20.650;2022-07-29T05:18:24;15.90;99.90
28767;DHT22;15921;52.034;20.650;2022-07-29T05:20:49;16.00;99.90
28767;DHT22;15921;52.034;20.650;2022-07-29T05:23:15;16.10;99.90
28767;DHT22;15921;52.034;20.650;2022-07-29T05:25:41;16.20;99.90
28767;DHT22;15921;52.034;20.650;2022-07-29T05:28:06;16.30;99.90
28767;DHT22;15921;52.034;20.650;2022-07-29T05:30:32;16.30;99.90
28767;DHT22;15921;52.034;20.650;2022-07-29T05:32:57;16.30;99.90
28767;DHT22;15921;52.034;20.650;2022-07-29T05:35:23;16.30;99.90
28767;DHT22;15921;52.034;20.650;2022-07-29T05:37:49;16.40;99.90
28767;DHT22;15921;52.034;20.650;2022-07-29T05:40:14;16.50;99.90
28767;DHT22;15921;52.034;20.650;2022-07-29T05:42:40;16.60;99.90
28767;DHT22;15921;52.034;20.650;2022-07-29T05:45:05;16.70;99.90
28767;DHT22;15921;52.034;20.650;2022-07-29T05:47:31;16.80;99.90
28767;DHT22;15921;52.034;20.650;2022-07-29T05:49:57;16.90;99.90
28767;DHT22;15921;52.034;20.650;2022-07-29T05:52:22;17.00;99.90
28767;DHT22;15921;52.034;20.650;2022-07-29T05:54:48;17.10;99.90
28767;DHT22;15921;52.034;20.650;2022-07-29T05:57:20;17.20;99.90
28767;DHT22;15921;52.034;20.650;2022-07-29T05:59:47;17.20;99.90
28767;DHT22;15921;52.034;20.650;2022-07-29T06:02:13;17.40;99.90
28767;DHT22;15921;52.034;20.650;2022-07-29T06:04:38;17.50;99.90
28767;DHT22;15921;52.034;20.650;2022-07-29T06:07:04;17.60;99.90
28767;DHT22;15921;52.034;20.650;2022-07-29T06:09:30;17.60;99.90
28767;DHT22;15921;52.034;20.650;2022-07-29T06:11:56;17.70;99.90
28767;DHT22;15921;52.034;20.650;2022-07-29T06:14:23;17.80;99.90
28767;DHT22;15921;52.034;20.650;2022-07-29T06:16:48;17.90;99.90
28767;DHT22;15921;52.034;20.650;2022-07-29T06:19:14;18.00;99.90
28767;DHT22;15921;52.034;20.650;2022-07-29T06:21:43;18.00;99.90
28767;DHT22;15921;52.034;20.650;2022-07-29T06:24:10;18.20;99.90
28767;DHT22;15921;52.034;20.650;2022-07-29T06:26:35;18.30;99.90
28767;DHT22;15921;52.034;20.650;2022-07-29T06:29:01;18.30;99.90
28767;DHT22;15921;52.034;20.650;2022-07-29T06:31:27;18.40;99.90
28767;DHT22;15921;52.034;20.650;2022-07-29T06:33:52;18.50;99.90
28767;DHT22;15921;52.034;20.650;2022-07-29T06:36:18;18.60;99.90
28767;DHT22;15921;52.034;20.650;2022-07-29T06:38:43;18.70;99.90
28767;DHT22;15921;52.034;20.650;2022-07-29T06:41:09;18.80;99.90
28767;DHT22;15921;52.034;20.650;2022-07-29T06:43:39;18.90;99.90
28767;DHT22;15921;52.034;20.650;2022-07-29T06:46:07;19.00;99.90
28767;DHT22;15921;52.034;20.650;2022-07-29T06:48:33;19.10;99.90
28767;DHT22;15921;52.034;20.650;2022-07-29T06:50:59;19.10;99.90
28767;DHT22;15921;52.034;20.650;2022-07-29T06:53:26;19.20;99.90
28767;DHT22;15921;52.034;20.650;2022-07-29T06:55:52;19.20;99.90
28767;DHT22;15921;52.034;20.650;2022-07-29T06:58:17;19.30;99.90
28767;DHT22;15921;52.034;20.650;2022-07-29T07:00:48;19.40;99.90
28767;DHT22;15921;52.034;20.650;2022-07-29T07:03:14;19.40;99.90
28767;DHT22;15921;52.034;20.650;2022-07-29T07:05:40;19.60;99.90
28767;DHT22;15921;52.034;20.650;2022-07-29T07:08:06;19.60;99.90
28767;DHT22;15921;52.034;20.650;2022-07-29T07:10:32;19.70;99.90
28767;DHT22;15921;52.034;20.650;2022-07-29T07:12:58;19.80;99.90
28767;DHT22;15921;52.034;20.650;2022-07-29T07:15:24;19.90;99.90
28767;DHT22;15921;52.034;20.650;2022-07-29T07:17:49;20.00;99.90
28767;DHT22;15921;52.034;20.650;2022-07-29T07:20:15;20.10;99.90
28767;DHT22;15921;52.034;20.650;2022-07-29T07:22:41;20.20;99.90
28767;DHT22;15921;52.034;20.650;2022-07-29T07:25:07;20.30;99.90
28767;DHT22;15921;52.034;20.650;2022-07-29T07:27:33;20.40;99.90
28767;DHT22;15921;52.034;20.650;2022-07-29T07:29:58;20.40;99.90
28767;DHT22;15921;52.034;20.650;2022-07-29T07:32:24;20.50;99.90
28767;DHT22;15921;52.034;20.650;2022-07-29T07:34:50;20.60;99.90
28767;DHT22;15921;52.034;20.650;2022-07-29T07:37:15;20.60;99.90
28767;DHT22;15921;52.034;20.650;2022-07-29T07:39:41;20.70;99.90
28767;DHT22;15921;52.034;20.650;2022-07-29T07:42:06;20.80;99.90
28767;DHT22;15921;52.034;20.650;2022-07-29T07:44:32;20.80;99.90
28767;DHT22;15921;52.034;20.650;2022-07-29T07:46:58;20.90;99.90
28767;DHT22;15921;52.034;20.650;2022-07-29T07:49:23;20.90;99.90
28767;DHT22;15921;52.034;20.650;2022-07-29T07:51:49;21.00;99.90
28767;DHT22;15921;52.034;20.650;2022-07-29T07:54:15;21.00;99.90
28767;DHT22;15921;52.034;20.650;2022-07-29T07:56:40;21.10;99.90
28767;DHT22;15921;52.034;20.650;2022-07-29T07:59:06;21.20;99.90
28767;DHT22;15921;52.034;20.650;2022-07-29T08:01:31;21.30;99.90
28767;DHT22;15921;52.034;20.650;2022-07-29T08:03:57;21.40;99.90
28767;DHT22;15921;52.034;20.650;2022-07-29T08:06:23;21.50;99.90
28767;DHT22;15921;52.034;20.650;2022-07-29T08:08:50;21.60;99.90
28767;DHT22;15921;52.034;20.650;2022-07-29T08:11:16;21.70;99.90
28767;DHT22;15921;52.034;20.650;2022-07-29T08:13:42;21.80;99.90
28767;DHT22;15921;52.034;20.650;2022-07-29T08:16:08;21.90;99.90
28767;DHT22;15921;52.034;20.650;2022-07-29T08:18:38;22.00;99.90
28767;DHT22;15921;52.034;20.650;2022-07-29T08:21:04;22.00;99.30
28767;DHT22;15921;52.034;20.650;2022-07-29T08:23:30;22.10;99.90
28767;DHT22;15921;52.034;20.650;2022-07-29T08:26:10;22.10;98.20
28767;DHT22;15921;52.034;20.650;2022-07-29T08:28:38;22.30;96.70
28767;DHT22;15921;52.034;20.650;2022-07-29T08:31:04;22.40;96.90
28767;DHT22;15921;52.034;20.650;2022-07-29T08:33:29;22.50;94.80
28767;DHT22;15921;52.034;20.650;2022-07-29T08:35:55;22.70;96.30
28767;DHT22;15921;52.034;20.650;2022-07-29T08:38:21;22.90;94.10
28767;DHT22;15921;52.034;20.650;2022-07-29T08:40:46;22.90;94.70
28767;DHT22;15921;52.034;20.650;2022-07-29T08:43:12;23.10;94.10
28767;DHT22;15921;52.034;20.650;2022-07-29T08:45:49;23.20;92.90
28767;DHT22;15921;52.034;20.650;2022-07-29T08:48:17;23.20;92.10
28767;DHT22;15921;52.034;20.650;2022-07-29T08:50:44;23.20;91.70
28767;DHT22;15921;52.034;20.650;2022-07-29T08:53:10;23.20;91.50
28767;DHT22;15921;52.034;20.650;2022-07-29T08:55:38;23.30;90.70
28767;DHT22;15921;52.034;20.650;2022-07-29T08:58:04;23.40;89.70
28767;DHT22;15921;52.034;20.650;2022-07-29T09:00:30;23.50;90.20
28767;DHT22;15921;52.034;20.650;2022-07-29T09:02:57;23.70;88.10
28767;DHT22;15921;52.034;20.650;2022-07-29T09:05:24;23.90;88.40
28767;DHT22;15921;52.034;20.650;2022-07-29T09:07:50;24.10;85.60
28767;DHT22;15921;52.034;20.650;2022-07-29T09:10:15;24.30;83.90
28767;DHT22;15921;52.034;20.650;2022-07-29T09:12:41;24.60;82.90
28767;DHT22;15921;52.034;20.650;2022-07-29T09:15:07;24.60;82.10
28767;DHT22;15921;52.034;20.650;2022-07-29T09:17:39;24.70;82.20
28767;DHT22;15921;52.034;20.650;2022-07-29T09:20:08;24.90;81.10
28767;DHT22;15921;52.034;20.650;2022-07-29T09:22:34;25.10;78.70
28767;DHT22;15921;52.034;20.650;2022-07-29T09:24:59;25.40;77.10
28767;DHT22;15921;52.034;20.650;2022-07-29T09:27:25;25.60;76.70
28767;DHT22;15921;52.034;20.650;2022-07-29T09:30:10;25.70;76.00
28767;DHT22;15921;52.034;20.650;2022-07-29T09:32:54;26.00;76.60
28767;DHT22;15921;52.034;20.650;2022-07-29T09:35:22;26.40;74.20
28767;DHT22;15921;52.034;20.650;2022-07-29T09:37:48;26.70;71.80
28767;DHT22;15921;52.034;20.650;2022-07-29T09:40:15;26.90;71.10
28767;DHT22;15921;52.034;20.650;2022-07-29T09:42:41;26.90;70.50
28767;DHT22;15921;52.034;20.650;2022-07-29T09:45:07;27.10;69.90
28767;DHT22;15921;52.034;20.650;2022-07-29T09:47:46;27.20;69.30
28767;DHT22;15921;52.034;20.650;2022-07-29T09:50:13;27.40;68.80
28767;DHT22;15921;52.034;20.650;2022-07-29T09:52:49;27.50;66.50
28767;DHT22;15921;52.034;20.650;2022-07-29T09:55:15;27.50;67.70
28767;DHT22;15921;52.034;20.650;2022-07-29T09:57:41;27.50;66.00
28767;DHT22;15921;52.034;20.650;2022-07-29T10:00:08;27.30;65.50
28767;DHT22;15921;52.034;20.650;2022-07-29T10:02:34;27.30;66.00
28767;DHT22;15921;52.034;20.650;2022-07-29T10:05:01;27.20;66.00
28767;DHT22;15921;52.034;20.650;2022-07-29T10:10:33;27.20;65.40
28767;DHT22;15921;52.034;20.650;2022-07-29T10:15:26;27.70;66.20
28767;DHT22;15921;52.034;20.650;2022-07-29T10:17:53;27.70;66.70
28767;DHT22;15921;52.034;20.650;2022-07-29T10:20:19;27.80;63.80
28767;DHT22;15921;52.034;20.650;2022-07-29T10:22:45;28.00;64.20
28767;DHT22;15921;52.034;20.650;2022-07-29T10:25:12;28.10;63.70
28767;DHT22;15921;52.034;20.650;2022-07-29T10:27:39;28.20;62.60
28767;DHT22;15921;52.034;20.650;2022-07-29T10:30:05;28.30;62.80
28767;DHT22;15921;52.034;20.650;2022-07-29T10:35:26;28.30;59.90
28767;DHT22;15921;52.034;20.650;2022-07-29T10:43:29;28.70;58.50
28767;DHT22;15921;52.034;20.650;2022-07-29T10:45:59;28.80;59.60
28767;DHT22;15921;52.034;20.650;2022-07-29T10:48:25;28.70;58.10
28767;DHT22;15921;52.034;20.650;2022-07-29T10:53:24;28.80;59.40
28767;DHT22;15921;52.034;20.650;2022-07-29T10:55:51;29.00;59.60
28767;DHT22;15921;52.034;20.650;2022-07-29T11:00:42;29.10;59.30
28767;DHT22;15921;52.034;20.650;2022-07-29T11:03:09;29.30;58.80
28767;DHT22;15921;52.034;20.650;2022-07-29T11:05:54;29.20;56.90
28767;DHT22;15921;52.034;20.650;2022-07-29T11:08:20;29.20;58.00
28767;DHT22;15921;52.034;20.650;2022-07-29T11:10:49;29.40;58.10
28767;DHT22;15921;52.034;20.650;2022-07-29T11:15:59;29.60;57.40
28767;DHT22;15921;52.034;20.650;2022-07-29T11:18:25;29.70;55.60
28767;DHT22;15921;52.034;20.650;2022-07-29T11:20:51;29.60;55.40
28767;DHT22;15921;52.034;20.650;2022-07-29T11:28:33;29.70;56.30
28767;DHT22;15921;52.034;20.650;2022-07-29T11:30:59;29.50;56.70
28767;DHT22;15921;52.034;20.650;2022-07-29T11:33:33;29.50;56.20
28767;DHT22;15921;52.034;20.650;2022-07-29T11:36:14;29.70;56.50
28767;DHT22;15921;52.034;20.650;2022-07-29T11:38:40;29.80;56.50
28767;DHT22;15921;52.034;20.650;2022-07-29T11:41:27;29.90;56.60
28767;DHT22;15921;52.034;20.650;2022-07-29T11:43:58;30.10;55.50
28767;DHT22;15921;52.034;20.650;2022-07-29T11:49:08;30.30;54.30
28767;DHT22;15921;52.034;20.650;2022-07-29T11:51:35;30.40;54.80
28767;DHT22;15921;52.034;20.650;2022-07-29T11:54:01;30.40;55.40
28767;DHT22;15921;52.034;20.650;2022-07-29T11:56:27;30.30;53.00
28767;DHT22;15921;52.034;20.650;2022-07-29T11:59:14;30.10;54.20
28767;DHT22;15921;52.034;20.650;2022-07-29T12:01:51;29.90;54.00
28767;DHT22;15921;52.034;20.650;2022-07-29T12:04:16;30.00;54.90
28767;DHT22;15921;52.034;20.650;2022-07-29T12:06:42;30.30;54.30
28767;DHT22;15921;52.034;20.650;2022-07-29T12:09:08;30.30;53.70
28767;DHT22;15921;52.034;20.650;2022-07-29T12:11:34;30.70;52.20
28767;DHT22;15921;52.034;20.650;2022-07-29T12:13:59;31.00;52.40
28767;DHT22;15921;52.034;20.650;2022-07-29T12:16:34;31.60;50.70
28767;DHT22;15921;52.034;20.650;2022-07-29T12:19:00;32.60;49.70
28767;DHT22;15921;52.034;20.650;2022-07-29T12:21:26;33.30;48.80
28767;DHT22;15921;52.034;20.650;2022-07-29T12:23:52;33.70;48.50
28767;DHT22;15921;52.034;20.650;2022-07-29T12:26:18;34.20;46.30
28767;DHT22;15921;52.034;20.650;2022-07-29T12:28:44;34.80;47.70
28767;DHT22;15921;52.034;20.650;2022-07-29T12:31:13;34.40;46.30
28767;DHT22;15921;52.034;20.650;2022-07-29T12:33:39;34.10;45.90
28767;DHT22;15921;52.034;20.650;2022-07-29T12:36:04;33.80;45.80
28767;DHT22;15921;52.034;20.650;2022-07-29T12:38:30;33.50;47.90
28767;DHT22;15921;52.034;20.650;2022-07-29T12:40:56;34.50;47.90
28767;DHT22;15921;52.034;20.650;2022-07-29T12:43:22;36.00;44.50
28767;DHT22;15921;52.034;20.650;2022-07-29T12:45:50;37.70;43.50
28767;DHT22;15921;52.034;20.650;2022-07-29T12:48:16;38.70;41.40
28767;DHT22;15921;52.034;20.650;2022-07-29T12:53:39;40.40;38.70
28767;DHT22;15921;52.034;20.650;2022-07-29T12:56:05;41.70;37.70
28767;DHT22;15921;52.034;20.650;2022-07-29T12:58:41;41.60;35.70
28767;DHT22;15921;52.034;20.650;2022-07-29T13:01:10;40.70;36.30
28767;DHT22;15921;52.034;20.650;2022-07-29T13:03:53;40.20;37.00
28767;DHT22;15921;52.034;20.650;2022-07-29T13:11:44;43.50;33.90
28767;DHT22;15921;52.034;20.650;2022-07-29T13:14:11;44.40;33.90
28767;DHT22;15921;52.034;20.650;2022-07-29T13:16:59;45.10;33.00
28767;DHT22;15921;52.034;20.650;2022-07-29T13:19:31;45.60;31.00
28767;DHT22;15921;52.034;20.650;2022-07-29T13:21:57;44.30;31.20
28767;DHT22;15921;52.034;20.650;2022-07-29T13:24:22;43.00;32.70
28767;DHT22;15921;52.034;20.650;2022-07-29T13:26:48;42.20;33.70
28767;DHT22;15921;52.034;20.650;2022-07-29T13:29:14;42.00;33.30
28767;DHT22;15921;52.034;20.650;2022-07-29T13:31:39;41.40;34.30
28767;DHT22;15921;52.034;20.650;2022-07-29T13:34:05;41.30;34.90
28767;DHT22;15921;52.034;20.650;2022-07-29T13:36:31;41.50;34.80
28767;DHT22;15921;52.034;20.650;2022-07-29T13:38:56;41.80;34.80
28767;DHT22;15921;52.034;20.650;2022-07-29T13:41:22;42.40;35.10
28767;DHT22;15921;52.034;20.650;2022-07-29T13:43:47;42.60;34.10
28767;DHT22;15921;52.034;20.650;2022-07-29T13:46:13;43.90;32.50
28767;DHT22;15921;52.034;20.650;2022-07-29T13:48:39;45.10;31.80
28767;DHT22;15921;52.034;20.650;2022-07-29T13:51:04;46.60;30.90
28767;DHT22;15921;52.034;20.650;2022-07-29T13:53:30;47.80;28.70
28767;DHT22;15921;52.034;20.650;2022-07-29T13:55:56;48.50;29.10
28767;DHT22;15921;52.034;20.650;2022-07-29T13:58:21;48.60;28.60
28767;DHT22;15921;52.034;20.650;2022-07-29T14:00:47;49.00;29.10
28767;DHT22;15921;52.034;20.650;2022-07-29T14:03:12;49.30;28.60
28767;DHT22;15921;52.034;20.650;2022-07-29T14:05:38;49.00;28.30
28767;DHT22;15921;52.034;20.650;2022-07-29T14:08:04;48.20;28.60
28767;DHT22;15921;52.034;20.650;2022-07-29T14:10:29;47.40;29.10
28767;DHT22;15921;52.034;20.650;2022-07-29T14:12:55;46.20;29.40
28767;DHT22;15921;52.034;20.650;2022-07-29T14:15:20;44.60;30.20
28767;DHT22;15921;52.034;20.650;2022-07-29T14:17:46;43.50;31.30
28767;DHT22;15921;52.034;20.650;2022-07-29T14:20:12;42.80;32.00
28767;DHT22;15921;52.034;20.650;2022-07-29T14:22:37;41.90;32.70
28767;DHT22;15921;52.034;20.650;2022-07-29T14:25:03;41.30;33.80
28767;DHT22;15921;52.034;20.650;2022-07-29T14:27:29;40.60;34.50
28767;DHT22;15921;52.034;20.650;2022-07-29T14:29:54;40.20;35.00
28767;DHT22;15921;52.034;20.650;2022-07-29T14:32:20;41.00;34.00
28767;DHT22;15921;52.034;20.650;2022-07-29T14:34:45;42.20;33.70
28767;DHT22;15921;52.034;20.650;2022-07-29T14:37:11;42.60;32.20
28767;DHT22;15921;52.034;20.650;2022-07-29T14:39:37;41.80;32.70
28767;DHT22;15921;52.034;20.650;2022-07-29T14:42:02;40.60;33.00
28767;DHT22;15921;52.034;20.650;2022-07-29T14:44:28;40.00;35.40
28767;DHT22;15921;52.034;20.650;2022-07-29T14:46:59;39.90;34.70
28767;DHT22;15921;52.034;20.650;2022-07-29T14:49:26;40.30;34.80
28767;DHT22;15921;52.034;20.650;2022-07-29T14:51:51;41.00;34.30
28767;DHT22;15921;52.034;20.650;2022-07-29T14:54:17;42.20;33.30
28767;DHT22;15921;52.034;20.650;2022-07-29T14:56:43;43.40;31.20
28767;DHT22;15921;52.034;20.650;2022-07-29T14:59:08;44.40;30.70
28767;DHT22;15921;52.034;20.650;2022-07-29T15:01:34;45.00;29.90
28767;DHT22;15921;52.034;20.650;2022-07-29T15:03:59;45.20;29.70
28767;DHT22;15921;52.034;20.650;2022-07-29T15:06:25;45.10;29.90
28767;DHT22;15921;52.034;20.650;2022-07-29T15:08:51;45.30;30.00
28767;DHT22;15921;52.034;20.650;2022-07-29T15:11:16;45.80;29.20
28767;DHT22;15921;52.034;20.650;2022-07-29T15:13:42;45.60;29.70
28767;DHT22;15921;52.034;20.650;2022-07-29T15:16:08;44.80;29.60
28767;DHT22;15921;52.034;20.650;2022-07-29T15:18:34;44.30;30.00
28767;DHT22;15921;52.034;20.650;2022-07-29T15:21:00;44.90;29.60
28767;DHT22;15921;52.034;20.650;2022-07-29T15:23:27;45.90;28.80
28767;DHT22;15921;52.034;20.650;2022-07-29T15:25:53;46.70;28.40
28767;DHT22;15921;52.034;20.650;2022-07-29T15:28:18;47.80;28.40
28767;DHT22;15921;52.034;20.650;2022-07-29T15:30:44;48.20;27.80
28767;DHT22;15921;52.034;20.650;2022-07-29T15:33:09;46.70;28.30
28767;DHT22;15921;52.034;20.650;2022-07-29T15:35:38;45.50;28.60
28767;DHT22;15921;52.034;20.650;2022-07-29T15:38:04;44.40;29.30
28767;DHT22;15921;52.034;20.650;2022-07-29T15:40:29;43.10;30.00
28767;DHT22;15921;52.034;20.650;2022-07-29T15:42:55;42.30;30.90
28767;DHT22;15921;52.034;20.650;2022-07-29T15:45:21;41.90;31.10
28767;DHT22;15921;52.034;20.650;2022-07-29T15:47:47;41.10;31.50
28767;DHT22;15921;52.034;20.650;2022-07-29T15:50:12;40.40;32.00
28767;DHT22;15921;52.034;20.650;2022-07-29T15:52:41;39.60;33.00
28767;DHT22;15921;52.034;20.650;2022-07-29T15:55:07;39.00;33.90
28767;DHT22;15921;52.034;20.650;2022-07-29T15:57:33;38.70;35.70
28767;DHT22;15921;52.034;20.650;2022-07-29T15:59:58;38.30;34.80
28767;DHT22;15921;52.034;20.650;2022-07-29T16:02:24;37.90;34.40
28767;DHT22;15921;52.034;20.650;2022-07-29T16:04:49;37.40;35.20
28767;DHT22;15921;52.034;20.650;2022-07-29T16:07:15;36.30;36.60
28767;DHT22;15921;52.034;20.650;2022-07-29T16:09:41;35.40;38.20
28767;DHT22;15921;52.034;20.650;2022-07-29T16:12:07;34.70;39.80